sensor_id;sensor_type;location;lat;lon;timestamp;P1;durP1;ratioP1;P2;durP2;ratioP2
20271;SDS011;10295;49.812;9.866;2023-12-04T00:01:44;88.60;;;35.23;;
20271;SDS011;10295;49.812;9.866;2023-12-04T00:04:12;93.33;;;35.70;;
20271;SDS011;10295;49.812;9.866;2023-12-04T00:06:43;92.30;;;36.20;;
20271;SDS011;10295;49.812;9.866;2023-12-04T00:09:10;86.53;;;34.90;;
20271;SDS011;10295;49.812;9.866;2023-12-04T00:11:37;89.73;;;35.57;;
20271;SDS011;10295;49.812;9.866;2023-12-04T00:14:04;84.83;;;34.50;;
20271;SDS011;10295;49.812;9.866;2023-12-04T00:16:35;91.53;;;36.03;;
20271;SDS011;10295;49.812;9.866;2023-12-04T00:19:02;85.27;;;35.07;;
20271;SDS011;10295;49.812;9.866;2023-12-04T00:21:29;86.50;;;35.83;;
20271;SDS011;10295;49.812;9.866;2023-12-04T00:23:56;84.83;;;35.33;;
20271;SDS011;10295;49.812;9.866;2023-12-04T00:26:24;83.17;;;35.33;;
20271;SDS011;10295;49.812;9.866;2023-12-04T00:28:51;90.87;;;36.47;;
20271;SDS011;10295;49.812;9.866;2023-12-04T00:31:18;83.07;;;34.00;;
20271;SDS011;10295;49.812;9.866;2023-12-04T00:33:45;91.77;;;35.57;;
20271;SDS011;10295;49.812;9.866;2023-12-04T00:36:14;85.73;;;35.73;;
20271;SDS011;10295;49.812;9.866;2023-12-04T00:38:41;92.30;;;36.13;;
20271;SDS011;10295;49.812;9.866;2023-12-04T00:41:08;88.47;;;35.57;;
20271;SDS011;10295;49.812;9.866;2023-12-04T00:43:36;94.43;;;36.97;;
20271;SDS011;10295;49.812;9.866;2023-12-04T00:46:03;90.27;;;37.40;;
20271;SDS011;10295;49.812;9.866;2023-12-04T00:48:30;92.27;;;36.67;;
20271;SDS011;10295;49.812;9.866;2023-12-04T00:50:57;88.90;;;37.03;;
20271;SDS011;10295;49.812;9.866;2023-12-04T00:53:25;97.90;;;37.93;;
20271;SDS011;10295;49.812;9.866;2023-12-04T00:55:52;92.90;;;35.77;;
20271;SDS011;10295;49.812;9.866;2023-12-04T00:58:19;90.40;;;35.50;;
20271;SDS011;10295;49.812;9.866;2023-12-04T01:00:46;90.17;;;36.90;;
20271;SDS011;10295;49.812;9.866;2023-12-04T01:03:15;93.13;;;35.77;;
20271;SDS011;10295;49.812;9.866;2023-12-04T01:05:42;85.63;;;35.47;;
20271;SDS011;10295;49.812;9.866;2023-12-04T01:08:09;85.13;;;34.93;;
20271;SDS011;10295;49.812;9.866;2023-12-04T01:10:36;89.77;;;35.10;;
20271;SDS011;10295;49.812;9.866;2023-12-04T01:13:05;81.67;;;34.23;;
20271;SDS011;10295;49.812;9.866;2023-12-04T01:15:32;83.70;;;34.97;;
20271;SDS011;10295;49.812;9.866;2023-12-04T01:18:00;81.90;;;34.67;;
20271;SDS011;10295;49.812;9.866;2023-12-04T01:20:28;81.47;;;33.93;;
20271;SDS011;10295;49.812;9.866;2023-12-04T01:22:56;85.97;;;35.03;;
20271;SDS011;10295;49.812;9.866;2023-12-04T01:25:23;85.40;;;35.17;;
20271;SDS011;10295;49.812;9.866;2023-12-04T01:27:50;84.97;;;34.77;;
20271;SDS011;10295;49.812;9.866;2023-12-04T01:30:18;83.00;;;33.67;;
20271;SDS011;10295;49.812;9.866;2023-12-04T01:32:45;84.70;;;34.57;;
20271;SDS011;10295;49.812;9.866;2023-12-04T01:35:12;84.00;;;34.13;;
20271;SDS011;10295;49.812;9.866;2023-12-04T01:37:39;88.70;;;35.37;;
20271;SDS011;10295;49.812;9.866;2023-12-04T01:40:07;86.23;;;34.90;;
20271;SDS011;10295;49.812;9.866;2023-12-04T01:42:35;84.00;;;34.70;;
20271;SDS011;10295;49.812;9.866;2023-12-04T01:45:02;89.17;;;35.13;;
20271;SDS011;10295;49.812;9.866;2023-12-04T01:47:29;90.50;;;34.70;;
20271;SDS011;10295;49.812;9.866;2023-12-04T01:49:57;87.07;;;34.40;;
20271;SDS011;10295;49.812;9.866;2023-12-04T01:52:24;92.80;;;35.97;;
20271;SDS011;10295;49.812;9.866;2023-12-04T01:54:52;91.43;;;35.97;;
20271;SDS011;10295;49.812;9.866;2023-12-04T01:57:20;82.97;;;35.37;;
20271;SDS011;10295;49.812;9.866;2023-12-04T01:59:47;87.87;;;34.90;;
20271;SDS011;10295;49.812;9.866;2023-12-04T02:02:14;91.73;;;35.57;;
20271;SDS011;10295;49.812;9.866;2023-12-04T02:04:42;90.80;;;35.27;;
20271;SDS011;10295;49.812;9.866;2023-12-04T02:07:10;86.20;;;34.83;;
20271;SDS011;10295;49.812;9.866;2023-12-04T02:09:37;89.60;;;36.10;;
20271;SDS011;10295;49.812;9.866;2023-12-04T02:12:05;90.47;;;35.33;;
20271;SDS011;10295;49.812;9.866;2023-12-04T02:14:32;92.17;;;35.70;;
20271;SDS011;10295;49.812;9.866;2023-12-04T02:17:00;91.53;;;35.90;;
20271;SDS011;10295;49.812;9.866;2023-12-04T02:19:28;92.23;;;36.30;;
20271;SDS011;10295;49.812;9.866;2023-12-04T02:21:56;91.07;;;35.13;;
20271;SDS011;10295;49.812;9.866;2023-12-04T02:24:23;92.17;;;35.80;;
20271;SDS011;10295;49.812;9.866;2023-12-04T02:26:56;92.47;;;35.10;;
20271;SDS011;10295;49.812;9.866;2023-12-04T02:29:32;90.63;;;34.50;;
20271;SDS011;10295;49.812;9.866;2023-12-04T02:32:04;95.60;;;35.43;;
20271;SDS011;10295;49.812;9.866;2023-12-04T02:34:32;86.73;;;35.37;;
20271;SDS011;10295;49.812;9.866;2023-12-04T02:37:01;81.50;;;34.30;;
20271;SDS011;10295;49.812;9.866;2023-12-04T02:39:28;80.10;;;34.40;;
20271;SDS011;10295;49.812;9.866;2023-12-04T02:41:56;81.70;;;34.47;;
20271;SDS011;10295;49.812;9.866;2023-12-04T02:44:23;83.77;;;34.27;;
20271;SDS011;10295;49.812;9.866;2023-12-04T02:46:50;87.47;;;34.90;;
20271;SDS011;10295;49.812;9.866;2023-12-04T02:49:17;86.57;;;34.63;;
20271;SDS011;10295;49.812;9.866;2023-12-04T02:51:45;82.30;;;33.17;;
20271;SDS011;10295;49.812;9.866;2023-12-04T02:54:12;80.77;;;33.40;;
20271;SDS011;10295;49.812;9.866;2023-12-04T02:56:39;80.07;;;33.17;;
20271;SDS011;10295;49.812;9.866;2023-12-04T02:59:06;76.57;;;31.90;;
20271;SDS011;10295;49.812;9.866;2023-12-04T03:01:34;73.70;;;32.27;;
20271;SDS011;10295;49.812;9.866;2023-12-04T03:04:01;77.30;;;30.80;;
20271;SDS011;10295;49.812;9.866;2023-12-04T03:06:28;68.67;;;30.73;;
20271;SDS011;10295;49.812;9.866;2023-12-04T03:08:56;71.63;;;30.77;;
20271;SDS011;10295;49.812;9.866;2023-12-04T03:11:25;70.63;;;30.27;;
20271;SDS011;10295;49.812;9.866;2023-12-04T03:13:52;66.37;;;30.17;;
20271;SDS011;10295;49.812;9.866;2023-12-04T03:16:19;67.10;;;29.83;;
20271;SDS011;10295;49.812;9.866;2023-12-04T03:18:46;69.03;;;30.20;;
20271;SDS011;10295;49.812;9.866;2023-12-04T03:21:14;63.73;;;29.07;;
20271;SDS011;10295;49.812;9.866;2023-12-04T03:23:41;65.60;;;30.27;;
20271;SDS011;10295;49.812;9.866;2023-12-04T03:26:08;65.80;;;29.67;;
20271;SDS011;10295;49.812;9.866;2023-12-04T03:28:36;70.83;;;30.87;;
20271;SDS011;10295;49.812;9.866;2023-12-04T03:31:03;65.10;;;29.53;;
20271;SDS011;10295;49.812;9.866;2023-12-04T03:33:30;65.33;;;29.97;;
20271;SDS011;10295;49.812;9.866;2023-12-04T03:35:58;63.67;;;29.47;;
20271;SDS011;10295;49.812;9.866;2023-12-04T03:38:26;65.73;;;28.53;;
20271;SDS011;10295;49.812;9.866;2023-12-04T03:40:53;63.90;;;28.57;;
20271;SDS011;10295;49.812;9.866;2023-12-04T03:43:20;63.47;;;28.73;;
20271;SDS011;10295;49.812;9.866;2023-12-04T03:45:47;65.97;;;29.27;;
20271;SDS011;10295;49.812;9.866;2023-12-04T03:48:15;64.70;;;28.73;;
20271;SDS011;10295;49.812;9.866;2023-12-04T03:50:42;59.57;;;28.20;;
20271;SDS011;10295;49.812;9.866;2023-12-04T03:53:09;63.43;;;28.17;;
20271;SDS011;10295;49.812;9.866;2023-12-04T03:55:37;62.77;;;28.30;;
20271;SDS011;10295;49.812;9.866;2023-12-04T03:58:04;63.13;;;28.63;;
20271;SDS011;10295;49.812;9.866;2023-12-04T04:00:31;59.47;;;26.73;;
20271;SDS011;10295;49.812;9.866;2023-12-04T04:02:59;61.63;;;27.60;;
20271;SDS011;10295;49.812;9.866;2023-12-04T04:05:26;60.43;;;28.43;;
20271;SDS011;10295;49.812;9.866;2023-12-04T04:07:54;58.13;;;27.53;;
20271;SDS011;10295;49.812;9.866;2023-12-04T04:10:21;59.67;;;28.73;;
20271;SDS011;10295;49.812;9.866;2023-12-04T04:12:48;64.90;;;29.53;;
20271;SDS011;10295;49.812;9.866;2023-12-04T04:15:15;58.33;;;27.67;;
20271;SDS011;10295;49.812;9.866;2023-12-04T04:17:43;58.23;;;26.93;;
20271;SDS011;10295;49.812;9.866;2023-12-04T04:20:10;59.90;;;27.63;;
20271;SDS011;10295;49.812;9.866;2023-12-04T04:22:38;60.00;;;26.70;;
20271;SDS011;10295;49.812;9.866;2023-12-04T04:25:07;52.90;;;24.80;;
20271;SDS011;10295;49.812;9.866;2023-12-04T04:27:34;54.77;;;24.80;;
20271;SDS011;10295;49.812;9.866;2023-12-04T04:30:02;52.23;;;23.80;;
20271;SDS011;10295;49.812;9.866;2023-12-04T04:32:29;45.80;;;20.23;;
20271;SDS011;10295;49.812;9.866;2023-12-04T04:34:56;47.70;;;22.40;;
20271;SDS011;10295;49.812;9.866;2023-12-04T04:37:23;50.23;;;22.37;;
20271;SDS011;10295;49.812;9.866;2023-12-04T04:39:50;50.10;;;23.53;;
20271;SDS011;10295;49.812;9.866;2023-12-04T04:42:18;49.30;;;23.33;;
20271;SDS011;10295;49.812;9.866;2023-12-04T04:44:45;48.97;;;22.50;;
20271;SDS011;10295;49.812;9.866;2023-12-04T04:47:12;48.73;;;22.33;;
20271;SDS011;10295;49.812;9.866;2023-12-04T04:49:39;53.70;;;24.03;;
20271;SDS011;10295;49.812;9.866;2023-12-04T04:52:08;51.77;;;24.10;;
20271;SDS011;10295;49.812;9.866;2023-12-04T04:54:35;49.57;;;23.67;;
20271;SDS011;10295;49.812;9.866;2023-12-04T04:57:03;48.30;;;22.17;;
20271;SDS011;10295;49.812;9.866;2023-12-04T04:59:30;49.83;;;22.37;;
20271;SDS011;10295;49.812;9.866;2023-12-04T05:01:58;48.50;;;23.27;;
20271;SDS011;10295;49.812;9.866;2023-12-04T05:04:25;47.50;;;23.20;;
20271;SDS011;10295;49.812;9.866;2023-12-04T05:06:53;49.50;;;23.27;;
20271;SDS011;10295;49.812;9.866;2023-12-04T05:09:20;50.93;;;22.87;;
20271;SDS011;10295;49.812;9.866;2023-12-04T05:11:47;48.73;;;23.30;;
20271;SDS011;10295;49.812;9.866;2023-12-04T05:14:14;49.77;;;23.77;;
20271;SDS011;10295;49.812;9.866;2023-12-04T05:16:41;47.90;;;23.03;;
20271;SDS011;10295;49.812;9.866;2023-12-04T05:19:09;54.07;;;23.60;;
20271;SDS011;10295;49.812;9.866;2023-12-04T05:21:36;49.80;;;23.53;;
20271;SDS011;10295;49.812;9.866;2023-12-04T05:24:03;48.00;;;23.17;;
20271;SDS011;10295;49.812;9.866;2023-12-04T05:26:30;47.03;;;22.80;;
20271;SDS011;10295;49.812;9.866;2023-12-04T05:28:57;50.33;;;23.70;;
20271;SDS011;10295;49.812;9.866;2023-12-04T05:31:24;48.90;;;23.50;;
20271;SDS011;10295;49.812;9.866;2023-12-04T05:33:52;45.27;;;21.53;;
20271;SDS011;10295;49.812;9.866;2023-12-04T05:36:19;47.93;;;23.03;;
20271;SDS011;10295;49.812;9.866;2023-12-04T05:38:46;46.67;;;23.00;;
20271;SDS011;10295;49.812;9.866;2023-12-04T05:41:14;47.90;;;23.33;;
20271;SDS011;10295;49.812;9.866;2023-12-04T05:43:41;47.13;;;22.87;;
20271;SDS011;10295;49.812;9.866;2023-12-04T05:46:08;51.00;;;23.87;;
20271;SDS011;10295;49.812;9.866;2023-12-04T05:48:35;49.37;;;23.03;;
20271;SDS011;10295;49.812;9.866;2023-12-04T05:51:02;49.00;;;22.30;;
20271;SDS011;10295;49.812;9.866;2023-12-04T05:53:30;50.27;;;23.97;;
20271;SDS011;10295;49.812;9.866;2023-12-04T05:55:57;48.80;;;23.30;;
20271;SDS011;10295;49.812;9.866;2023-12-04T05:58:24;49.30;;;23.37;;
20271;SDS011;10295;49.812;9.866;2023-12-04T06:00:51;48.53;;;21.90;;
20271;SDS011;10295;49.812;9.866;2023-12-04T06:03:18;46.67;;;22.20;;
20271;SDS011;10295;49.812;9.866;2023-12-04T06:05:45;44.57;;;22.37;;
20271;SDS011;10295;49.812;9.866;2023-12-04T06:08:13;49.80;;;23.57;;
20271;SDS011;10295;49.812;9.866;2023-12-04T06:10:40;48.87;;;23.00;;
20271;SDS011;10295;49.812;9.866;2023-12-04T06:13:07;46.03;;;22.30;;
20271;SDS011;10295;49.812;9.866;2023-12-04T06:15:35;48.13;;;23.20;;
20271;SDS011;10295;49.812;9.866;2023-12-04T06:18:02;50.37;;;23.03;;
20271;SDS011;10295;49.812;9.866;2023-12-04T06:20:31;53.00;;;23.63;;
20271;SDS011;10295;49.812;9.866;2023-12-04T06:22:58;47.97;;;23.00;;
20271;SDS011;10295;49.812;9.866;2023-12-04T06:25:25;49.40;;;23.67;;
20271;SDS011;10295;49.812;9.866;2023-12-04T06:27:53;55.70;;;25.70;;
20271;SDS011;10295;49.812;9.866;2023-12-04T06:30:20;52.30;;;25.20;;
20271;SDS011;10295;49.812;9.866;2023-12-04T06:32:47;54.20;;;25.50;;
20271;SDS011;10295;49.812;9.866;2023-12-04T06:35:15;48.43;;;23.67;;
20271;SDS011;10295;49.812;9.866;2023-12-04T06:37:45;51.90;;;24.20;;
20271;SDS011;10295;49.812;9.866;2023-12-04T06:40:14;51.30;;;23.47;;
20271;SDS011;10295;49.812;9.866;2023-12-04T06:42:41;45.73;;;21.60;;
20271;SDS011;10295;49.812;9.866;2023-12-04T06:45:09;46.60;;;21.37;;
20271;SDS011;10295;49.812;9.866;2023-12-04T06:47:36;45.70;;;21.50;;
20271;SDS011;10295;49.812;9.866;2023-12-04T06:50:04;48.10;;;21.80;;
20271;SDS011;10295;49.812;9.866;2023-12-04T06:52:31;45.90;;;21.10;;
20271;SDS011;10295;49.812;9.866;2023-12-04T06:54:58;35.77;;;16.23;;
20271;SDS011;10295;49.812;9.866;2023-12-04T06:57:25;41.70;;;19.87;;
20271;SDS011;10295;49.812;9.866;2023-12-04T06:59:53;45.17;;;20.67;;
20271;SDS011;10295;49.812;9.866;2023-12-04T07:02:20;39.27;;;17.07;;
20271;SDS011;10295;49.812;9.866;2023-12-04T07:04:47;43.07;;;20.33;;
20271;SDS011;10295;49.812;9.866;2023-12-04T07:07:14;40.77;;;19.67;;
20271;SDS011;10295;49.812;9.866;2023-12-04T07:09:42;42.60;;;19.60;;
20271;SDS011;10295;49.812;9.866;2023-12-04T07:12:09;41.03;;;17.17;;
20271;SDS011;10295;49.812;9.866;2023-12-04T07:14:36;37.03;;;18.47;;
20271;SDS011;10295;49.812;9.866;2023-12-04T07:17:03;41.50;;;19.03;;
20271;SDS011;10295;49.812;9.866;2023-12-04T07:19:31;37.07;;;18.13;;
20271;SDS011;10295;49.812;9.866;2023-12-04T07:21:58;41.30;;;19.20;;
20271;SDS011;10295;49.812;9.866;2023-12-04T07:24:25;36.57;;;18.17;;
20271;SDS011;10295;49.812;9.866;2023-12-04T07:26:52;40.93;;;18.10;;
20271;SDS011;10295;49.812;9.866;2023-12-04T07:29:20;37.20;;;18.03;;
20271;SDS011;10295;49.812;9.866;2023-12-04T07:31:47;43.37;;;17.23;;
20271;SDS011;10295;49.812;9.866;2023-12-04T07:34:14;41.10;;;19.07;;
20271;SDS011;10295;49.812;9.866;2023-12-04T07:36:42;37.07;;;17.60;;
20271;SDS011;10295;49.812;9.866;2023-12-04T07:39:10;38.33;;;19.53;;
20271;SDS011;10295;49.812;9.866;2023-12-04T07:41:37;40.57;;;19.47;;
20271;SDS011;10295;49.812;9.866;2023-12-04T07:44:04;37.63;;;18.60;;
20271;SDS011;10295;49.812;9.866;2023-12-04T07:46:32;36.83;;;16.93;;
20271;SDS011;10295;49.812;9.866;2023-12-04T07:49:00;37.40;;;17.37;;
20271;SDS011;10295;49.812;9.866;2023-12-04T07:51:27;37.60;;;17.07;;
20271;SDS011;10295;49.812;9.866;2023-12-04T07:53:54;36.40;;;17.13;;
20271;SDS011;10295;49.812;9.866;2023-12-04T07:56:21;34.20;;;15.50;;
20271;SDS011;10295;49.812;9.866;2023-12-04T07:58:49;34.87;;;16.30;;
20271;SDS011;10295;49.812;9.866;2023-12-04T08:01:16;31.30;;;15.47;;
20271;SDS011;10295;49.812;9.866;2023-12-04T08:03:44;32.40;;;16.20;;
20271;SDS011;10295;49.812;9.866;2023-12-04T08:06:11;35.07;;;17.00;;
20271;SDS011;10295;49.812;9.866;2023-12-04T08:08:38;36.00;;;15.83;;
20271;SDS011;10295;49.812;9.866;2023-12-04T08:11:05;31.13;;;14.37;;
20271;SDS011;10295;49.812;9.866;2023-12-04T08:13:32;34.90;;;15.80;;
20271;SDS011;10295;49.812;9.866;2023-12-04T08:15:59;35.83;;;15.97;;
20271;SDS011;10295;49.812;9.866;2023-12-04T08:18:27;33.57;;;16.47;;
20271;SDS011;10295;49.812;9.866;2023-12-04T08:20:54;32.37;;;15.63;;
20271;SDS011;10295;49.812;9.866;2023-12-04T08:23:22;32.80;;;15.80;;
20271;SDS011;10295;49.812;9.866;2023-12-04T08:25:49;28.67;;;14.63;;
20271;SDS011;10295;49.812;9.866;2023-12-04T08:28:16;30.27;;;14.87;;
20271;SDS011;10295;49.812;9.866;2023-12-04T08:30:43;32.87;;;15.77;;
20271;SDS011;10295;49.812;9.866;2023-12-04T08:33:10;30.50;;;14.97;;
20271;SDS011;10295;49.812;9.866;2023-12-04T08:35:38;33.07;;;15.67;;
20271;SDS011;10295;49.812;9.866;2023-12-04T08:38:05;36.30;;;16.10;;
20271;SDS011;10295;49.812;9.866;2023-12-04T08:40:32;28.13;;;12.97;;
20271;SDS011;10295;49.812;9.866;2023-12-04T08:42:59;31.80;;;14.97;;
20271;SDS011;10295;49.812;9.866;2023-12-04T08:45:27;28.93;;;14.37;;
20271;SDS011;10295;49.812;9.866;2023-12-04T08:47:54;31.87;;;14.90;;
20271;SDS011;10295;49.812;9.866;2023-12-04T08:50:21;30.30;;;14.47;;
20271;SDS011;10295;49.812;9.866;2023-12-04T08:52:48;33.20;;;15.97;;
20271;SDS011;10295;49.812;9.866;2023-12-04T08:55:16;28.57;;;13.70;;
20271;SDS011;10295;49.812;9.866;2023-12-04T08:57:43;30.23;;;14.53;;
20271;SDS011;10295;49.812;9.866;2023-12-04T09:00:10;31.53;;;13.67;;
20271;SDS011;10295;49.812;9.866;2023-12-04T09:02:38;26.80;;;13.77;;
20271;SDS011;10295;49.812;9.866;2023-12-04T09:05:15;30.07;;;14.47;;
20271;SDS011;10295;49.812;9.866;2023-12-04T09:07:42;29.27;;;14.07;;
20271;SDS011;10295;49.812;9.866;2023-12-04T09:10:12;27.67;;;14.67;;
20271;SDS011;10295;49.812;9.866;2023-12-04T09:12:56;30.67;;;14.63;;
20271;SDS011;10295;49.812;9.866;2023-12-04T09:15:23;26.87;;;12.93;;
20271;SDS011;10295;49.812;9.866;2023-12-04T09:17:50;28.23;;;13.50;;
20271;SDS011;10295;49.812;9.866;2023-12-04T09:20:17;26.30;;;13.13;;
20271;SDS011;10295;49.812;9.866;2023-12-04T09:22:45;27.93;;;12.93;;
20271;SDS011;10295;49.812;9.866;2023-12-04T09:25:18;31.87;;;13.50;;
20271;SDS011;10295;49.812;9.866;2023-12-04T09:27:45;27.50;;;12.77;;
20271;SDS011;10295;49.812;9.866;2023-12-04T09:30:12;29.27;;;15.10;;
20271;SDS011;10295;49.812;9.866;2023-12-04T09:32:40;29.27;;;12.90;;
20271;SDS011;10295;49.812;9.866;2023-12-04T09:35:07;28.53;;;14.50;;
20271;SDS011;10295;49.812;9.866;2023-12-04T09:37:35;31.53;;;15.60;;
20271;SDS011;10295;49.812;9.866;2023-12-04T09:40:02;27.83;;;14.07;;
20271;SDS011;10295;49.812;9.866;2023-12-04T09:42:30;25.67;;;12.57;;
20271;SDS011;10295;49.812;9.866;2023-12-04T09:44:57;27.50;;;13.23;;
20271;SDS011;10295;49.812;9.866;2023-12-04T09:47:25;23.40;;;11.10;;
20271;SDS011;10295;49.812;9.866;2023-12-04T09:49:53;26.70;;;13.20;;
20271;SDS011;10295;49.812;9.866;2023-12-04T09:52:20;28.57;;;13.23;;
20271;SDS011;10295;49.812;9.866;2023-12-04T09:54:48;26.83;;;12.30;;
20271;SDS011;10295;49.812;9.866;2023-12-04T09:57:15;26.93;;;12.90;;
20271;SDS011;10295;49.812;9.866;2023-12-04T09:59:44;26.10;;;12.83;;
20271;SDS011;10295;49.812;9.866;2023-12-04T10:02:12;23.20;;;10.63;;
20271;SDS011;10295;49.812;9.866;2023-12-04T10:04:39;22.13;;;9.77;;
20271;SDS011;10295;49.812;9.866;2023-12-04T10:07:07;21.97;;;10.70;;
20271;SDS011;10295;49.812;9.866;2023-12-04T10:09:34;24.87;;;11.67;;
20271;SDS011;10295;49.812;9.866;2023-12-04T10:12:01;24.13;;;11.73;;
20271;SDS011;10295;49.812;9.866;2023-12-04T10:14:28;23.63;;;11.43;;
20271;SDS011;10295;49.812;9.866;2023-12-04T10:16:56;25.00;;;11.67;;
20271;SDS011;10295;49.812;9.866;2023-12-04T10:19:23;27.83;;;12.50;;
20271;SDS011;10295;49.812;9.866;2023-12-04T10:21:57;26.97;;;12.67;;
20271;SDS011;10295;49.812;9.866;2023-12-04T10:24:29;23.87;;;11.27;;
20271;SDS011;10295;49.812;9.866;2023-12-04T10:26:58;25.13;;;11.73;;
20271;SDS011;10295;49.812;9.866;2023-12-04T10:29:29;27.77;;;10.77;;
20271;SDS011;10295;49.812;9.866;2023-12-04T10:31:59;20.50;;;9.07;;
20271;SDS011;10295;49.812;9.866;2023-12-04T10:34:29;26.00;;;11.30;;
20271;SDS011;10295;49.812;9.866;2023-12-04T10:36:59;25.20;;;10.37;;
20271;SDS011;10295;49.812;9.866;2023-12-04T10:39:26;17.97;;;8.37;;
20271;SDS011;10295;49.812;9.866;2023-12-04T10:42:03;24.10;;;10.70;;
20271;SDS011;10295;49.812;9.866;2023-12-04T10:44:32;29.63;;;12.43;;
20271;SDS011;10295;49.812;9.866;2023-12-04T10:47:00;25.73;;;11.87;;
20271;SDS011;10295;49.812;9.866;2023-12-04T10:49:27;27.77;;;11.20;;
20271;SDS011;10295;49.812;9.866;2023-12-04T10:51:55;22.77;;;11.13;;
20271;SDS011;10295;49.812;9.866;2023-12-04T10:54:25;25.60;;;12.37;;
20271;SDS011;10295;49.812;9.866;2023-12-04T10:56:53;27.10;;;11.97;;
20271;SDS011;10295;49.812;9.866;2023-12-04T10:59:22;23.50;;;10.77;;
20271;SDS011;10295;49.812;9.866;2023-12-04T11:01:53;26.97;;;11.33;;
20271;SDS011;10295;49.812;9.866;2023-12-04T11:04:23;23.30;;;10.87;;
20271;SDS011;10295;49.812;9.866;2023-12-04T11:06:51;24.57;;;10.97;;
20271;SDS011;10295;49.812;9.866;2023-12-04T11:09:22;24.33;;;10.67;;
20271;SDS011;10295;49.812;9.866;2023-12-04T11:11:55;29.83;;;11.93;;
20271;SDS011;10295;49.812;9.866;2023-12-04T11:14:24;22.90;;;11.17;;
20271;SDS011;10295;49.812;9.866;2023-12-04T11:16:57;23.67;;;11.73;;
20271;SDS011;10295;49.812;9.866;2023-12-04T11:22:14;22.97;;;11.13;;
20271;SDS011;10295;49.812;9.866;2023-12-04T11:24:41;26.73;;;12.00;;
20271;SDS011;10295;49.812;9.866;2023-12-04T11:27:08;24.77;;;11.30;;
20271;SDS011;10295;49.812;9.866;2023-12-04T11:29:36;25.53;;;11.03;;
20271;SDS011;10295;49.812;9.866;2023-12-04T11:32:05;22.43;;;10.50;;
20271;SDS011;10295;49.812;9.866;2023-12-04T11:34:35;24.93;;;12.10;;
20271;SDS011;10295;49.812;9.866;2023-12-04T11:37:03;26.00;;;12.67;;
20271;SDS011;10295;49.812;9.866;2023-12-04T11:39:33;21.77;;;10.70;;
20271;SDS011;10295;49.812;9.866;2023-12-04T11:42:00;21.90;;;11.10;;
20271;SDS011;10295;49.812;9.866;2023-12-04T11:44:28;20.33;;;10.43;;
20271;SDS011;10295;49.812;9.866;2023-12-04T11:47:03;23.37;;;10.93;;
20271;SDS011;10295;49.812;9.866;2023-12-04T11:49:32;21.07;;;10.63;;
20271;SDS011;10295;49.812;9.866;2023-12-04T11:52:03;24.10;;;10.03;;
20271;SDS011;10295;49.812;9.866;2023-12-04T11:54:55;27.70;;;11.73;;
20271;SDS011;10295;49.812;9.866;2023-12-04T11:59:46;29.50;;;11.97;;
20271;SDS011;10295;49.812;9.866;2023-12-04T12:02:13;23.80;;;11.77;;
20271;SDS011;10295;49.812;9.866;2023-12-04T12:04:42;25.30;;;11.83;;
20271;SDS011;10295;49.812;9.866;2023-12-04T12:07:11;21.17;;;10.00;;
20271;SDS011;10295;49.812;9.866;2023-12-04T12:09:38;26.37;;;12.10;;
20271;SDS011;10295;49.812;9.866;2023-12-04T12:12:06;24.07;;;10.97;;
20271;SDS011;10295;49.812;9.866;2023-12-04T12:14:33;23.30;;;11.63;;
20271;SDS011;10295;49.812;9.866;2023-12-04T12:17:01;23.77;;;11.43;;
20271;SDS011;10295;49.812;9.866;2023-12-04T12:19:28;29.40;;;12.47;;
20271;SDS011;10295;49.812;9.866;2023-12-04T12:21:55;21.43;;;9.67;;
20271;SDS011;10295;49.812;9.866;2023-12-04T12:24:25;26.43;;;12.07;;
20271;SDS011;10295;49.812;9.866;2023-12-04T12:26:53;24.07;;;11.10;;
20271;SDS011;10295;49.812;9.866;2023-12-04T12:29:21;24.13;;;11.53;;
20271;SDS011;10295;49.812;9.866;2023-12-04T12:31:49;22.77;;;10.30;;
20271;SDS011;10295;49.812;9.866;2023-12-04T12:34:17;22.37;;;11.07;;
20271;SDS011;10295;49.812;9.866;2023-12-04T12:36:45;25.10;;;11.20;;
20271;SDS011;10295;49.812;9.866;2023-12-04T12:39:12;25.43;;;11.93;;
20271;SDS011;10295;49.812;9.866;2023-12-04T12:41:50;24.53;;;10.50;;
20271;SDS011;10295;49.812;9.866;2023-12-04T12:44:17;24.87;;;11.97;;
20271;SDS011;10295;49.812;9.866;2023-12-04T12:46:48;26.67;;;12.57;;
20271;SDS011;10295;49.812;9.866;2023-12-04T12:49:18;27.60;;;11.70;;
20271;SDS011;10295;49.812;9.866;2023-12-04T12:52:01;29.33;;;11.23;;
20271;SDS011;10295;49.812;9.866;2023-12-04T12:54:30;25.07;;;11.87;;
20271;SDS011;10295;49.812;9.866;2023-12-04T12:56:59;29.93;;;12.30;;
20271;SDS011;10295;49.812;9.866;2023-12-04T12:59:27;26.47;;;11.57;;
20271;SDS011;10295;49.812;9.866;2023-12-04T13:01:54;23.73;;;11.53;;
20271;SDS011;10295;49.812;9.866;2023-12-04T13:04:23;27.50;;;11.83;;
20271;SDS011;10295;49.812;9.866;2023-12-04T13:06:51;28.07;;;11.17;;
20271;SDS011;10295;49.812;9.866;2023-12-04T13:09:19;27.53;;;12.27;;
20271;SDS011;10295;49.812;9.866;2023-12-04T13:11:48;25.27;;;10.83;;
20271;SDS011;10295;49.812;9.866;2023-12-04T13:14:15;24.00;;;10.83;;
20271;SDS011;10295;49.812;9.866;2023-12-04T13:16:42;21.97;;;10.87;;
20271;SDS011;10295;49.812;9.866;2023-12-04T13:19:09;31.50;;;11.97;;
20271;SDS011;10295;49.812;9.866;2023-12-04T13:21:36;23.13;;;8.20;;
20271;SDS011;10295;49.812;9.866;2023-12-04T13:24:04;20.83;;;7.93;;
20271;SDS011;10295;49.812;9.866;2023-12-04T13:26:33;25.83;;;10.00;;
20271;SDS011;10295;49.812;9.866;2023-12-04T13:29:00;30.07;;;11.53;;
20271;SDS011;10295;49.812;9.866;2023-12-04T13:31:28;27.33;;;11.47;;
20271;SDS011;10295;49.812;9.866;2023-12-04T13:33:55;27.80;;;11.13;;
20271;SDS011;10295;49.812;9.866;2023-12-04T13:36:22;23.27;;;10.53;;
20271;SDS011;10295;49.812;9.866;2023-12-04T13:38:50;28.03;;;12.13;;
20271;SDS011;10295;49.812;9.866;2023-12-04T13:41:17;31.83;;;13.07;;
20271;SDS011;10295;49.812;9.866;2023-12-04T13:44:03;25.73;;;10.33;;
20271;SDS011;10295;49.812;9.866;2023-12-04T13:46:31;23.83;;;11.17;;
20271;SDS011;10295;49.812;9.866;2023-12-04T13:48:58;27.63;;;11.50;;
20271;SDS011;10295;49.812;9.866;2023-12-04T13:51:26;28.33;;;12.60;;
20271;SDS011;10295;49.812;9.866;2023-12-04T13:53:53;31.80;;;14.20;;
20271;SDS011;10295;49.812;9.866;2023-12-04T13:56:28;27.60;;;13.10;;
20271;SDS011;10295;49.812;9.866;2023-12-04T13:59:10;32.83;;;14.97;;
20271;SDS011;10295;49.812;9.866;2023-12-04T14:01:44;33.97;;;14.60;;
20271;SDS011;10295;49.812;9.866;2023-12-04T14:04:12;42.93;;;17.63;;
20271;SDS011;10295;49.812;9.866;2023-12-04T14:06:39;40.83;;;17.33;;
20271;SDS011;10295;49.812;9.866;2023-12-04T14:09:07;35.70;;;16.27;;
20271;SDS011;10295;49.812;9.866;2023-12-04T14:11:36;37.27;;;15.53;;
20271;SDS011;10295;49.812;9.866;2023-12-04T14:14:04;26.87;;;13.17;;
20271;SDS011;10295;49.812;9.866;2023-12-04T14:16:32;30.17;;;13.70;;
20271;SDS011;10295;49.812;9.866;2023-12-04T14:18:59;30.00;;;13.53;;
20271;SDS011;10295;49.812;9.866;2023-12-04T14:21:27;27.17;;;13.13;;
20271;SDS011;10295;49.812;9.866;2023-12-04T14:23:54;28.93;;;13.43;;
20271;SDS011;10295;49.812;9.866;2023-12-04T14:26:22;30.60;;;13.97;;
20271;SDS011;10295;49.812;9.866;2023-12-04T14:28:49;32.27;;;14.10;;
20271;SDS011;10295;49.812;9.866;2023-12-04T14:31:16;33.73;;;14.20;;